Time;durP1;ratioP1;P1;durP2;ratioP2;P2;SDS_P1;SDS_P2;PMS_P1;PMS_P2;Temp;Humidity;BMP_temperature;BMP_pressure;BME280_temperature;BME280_humidity;BME280_pressure;Samples;Min_cycle;Max_cycle;Signal;HPM_P1;HPM_P2
2023/02/01 00:01:25;;;;;;;2.67;2.55;;;4.10;1.00;;;;;;4993307;28;20217;-80
2023/02/01 00:03:53;;;;;;;3.83;3.53;;;4.10;1.00;;;;;;4997030;28;20211;-79
2023/02/01 00:06:21;;;;;;;3.22;2.90;;;4.00;1.00;;;;;;4993982;28;20402;-79
2023/02/01 00:08:49;;;;;;;3.40;3.10;;;4.10;1.00;;;;;;4995367;28;20201;-77
2023/02/01 00:11:17;;;;;;;3.45;2.88;;;4.00;1.00;;;;;;4991490;28;20249;-77
2023/02/01 00:13:47;;;;;;;2.80;2.30;;;4.00;1.00;;;;;;4991522;28;20329;-78
2023/02/01 00:16:17;;;;;;;2.65;2.45;;;3.90;1.00;;;;;;4994587;28;20233;-78
2023/02/01 00:18:45;;;;;;;5.82;2.90;;;3.90;1.00;;;;;;4991819;28;20606;-77
2023/02/01 00:21:15;;;;;;;3.40;3.15;;;4.00;1.00;;;;;;4991567;28;20574;-78
2023/02/01 00:23:43;;;;;;;2.50;2.30;;;4.00;1.00;;;;;;4987124;28;20209;-78
2023/02/01 00:26:16;;;;;;;2.80;2.60;;;4.00;1.00;;;;;;4990610;28;20233;-76
2023/02/01 00:28:44;;;;;;;2.70;2.50;;;3.90;1.00;;;;;;4988644;28;20216;-79
2023/02/01 00:31:14;;;;;;;2.90;2.70;;;4.00;1.00;;;;;;4996683;28;20214;-79
2023/02/01 00:33:43;;;;;;;3.60;3.25;;;3.90;1.00;;;;;;4996317;28;20215;-80
2023/02/01 00:36:11;;;;;;;2.80;2.60;;;3.90;1.00;;;;;;4992924;28;20569;-81
2023/02/01 00:38:40;;;;;;;3.05;2.75;;;3.90;1.00;;;;;;4994777;28;20202;-79
2023/02/01 00:41:11;;;;;;;3.05;2.85;;;3.90;1.00;;;;;;4996335;28;20205;-80
2023/02/01 00:43:39;;;;;;;2.45;2.25;;;3.90;1.00;;;;;;4994891;28;20398;-79
2023/02/01 00:46:08;;;;;;;2.80;2.60;;;3.90;1.00;;;;;;4995319;28;20209;-81
2023/02/01 00:48:38;;;;;;;2.88;2.60;;;3.90;1.00;;;;;;4995349;28;22099;-81
2023/02/01 00:51:09;;;;;;;2.33;2.13;;;4.00;1.00;;;;;;4994038;28;20193;-80
2023/02/01 00:53:38;;;;;;;2.47;2.38;;;4.00;1.00;;;;;;4997635;28;20264;-80
2023/02/01 00:56:07;;;;;;;2.45;2.35;;;4.00;1.00;;;;;;4995251;28;20209;-80
2023/02/01 00:58:35;;;;;;;2.35;2.15;;;4.10;1.00;;;;;;5003950;28;20752;-80
2023/02/01 01:01:05;;;;;;;2.13;1.95;;;4.10;1.00;;;;;;5002181;28;20205;-79
2023/02/01 01:03:36;;;;;;;2.55;1.90;;;4.10;1.00;;;;;;5002019;28;20690;-80
2023/02/01 01:06:09;;;;;;;2.33;2.13;;;4.10;1.00;;;;;;5004238;28;20287;-80
2023/02/01 01:08:38;;;;;;;2.03;1.92;;;4.10;1.00;;;;;;5000744;28;20190;-79
2023/02/01 01:11:08;;;;;;;2.08;1.98;;;4.10;1.00;;;;;;5004098;28;20244;-80
2023/02/01 01:13:36;;;;;;;1.80;1.70;;;4.10;1.00;;;;;;5000195;28;20780;-78
2023/02/01 01:16:06;;;;;;;2.08;1.98;;;4.10;1.00;;;;;;5002561;28;20304;-79
2023/02/01 01:18:35;;;;;;;2.53;2.33;;;4.00;1.00;;;;;;5002394;28;20281;-79
2023/02/01 01:21:07;;;;;;;2.22;2.03;;;4.00;1.00;;;;;;5000923;28;20564;-79
2023/02/01 01:23:36;;;;;;;2.00;1.90;;;4.10;1.00;;;;;;5005080;28;20208;-79
2023/02/01 01:26:09;;;;;;;2.05;1.95;;;4.10;1.00;;;;;;5005517;28;20322;-80
2023/02/01 01:28:37;;;;;;;2.97;2.78;;;3.90;1.00;;;;;;5022482;28;20299;-80
2023/02/01 01:31:08;;;;;;;2.78;2.58;;;4.00;1.00;;;;;;5004312;28;21042;-79
2023/02/01 01:33:36;;;;;;;2.97;2.78;;;4.00;1.00;;;;;;5006180;28;20327;-79
2023/02/01 01:36:09;;;;;;;3.08;2.88;;;4.00;1.00;;;;;;5000422;28;20205;-79
2023/02/01 01:38:38;;;;;;;2.70;2.60;;;3.90;1.00;;;;;;5002154;28;20201;-78
2023/02/01 01:41:07;;;;;;;3.67;3.38;;;3.90;1.00;;;;;;5002051;28;20665;-79
2023/02/01 01:43:49;;;;;;;3.65;3.35;;;3.90;1.00;;;;;;4996214;28;20674;-80
2023/02/01 01:46:19;;;;;;;3.13;2.92;;;3.90;1.00;;;;;;5000163;28;20267;-78
2023/02/01 01:48:51;;;;;;;3.53;3.30;;;4.00;1.00;;;;;;5003247;28;20258;-77
2023/02/01 01:51:23;;;;;;;3.38;3.08;;;4.00;1.00;;;;;;5004175;28;20228;-79
2023/02/01 01:53:58;;;;;;;3.55;3.35;;;3.90;1.00;;;;;;5002378;28;20298;-79
2023/02/01 01:56:28;;;;;;;4.20;3.50;;;4.00;1.00;;;;;;5008769;28;20274;-79
2023/02/01 01:58:57;;;;;;;4.60;3.38;;;4.00;1.00;;;;;;5004673;28;20205;-79
2023/02/01 02:01:25;;;;;;;5.05;4.38;;;4.00;1.00;;;;;;5006995;28;20943;-80
2023/02/01 02:03:54;;;;;;;4.93;4.57;;;4.00;1.00;;;;;;5007492;28;20204;-79
2023/02/01 02:06:34;;;;;;;4.07;3.65;;;3.90;1.00;;;;;;5015668;28;20217;-80
2023/02/01 02:09:03;;;;;;;3.10;2.90;;;4.00;1.00;;;;;;5010488;28;20676;-80
2023/02/01 02:11:34;;;;;;;3.63;3.35;;;3.90;1.00;;;;;;5011371;28;20205;-81
2023/02/01 02:14:04;;;;;;;3.42;3.13;;;3.90;1.00;;;;;;5003410;28;20565;-81
2023/02/01 02:16:42;;;;;;;3.50;3.30;;;4.00;1.00;;;;;;5005873;28;20241;-80
2023/02/01 02:19:34;;;;;;;3.30;3.10;;;4.10;1.00;;;;;;5006442;28;20209;-79
2023/02/01 02:22:36;;;;;;;3.70;3.40;;;4.10;1.00;;;;;;5005035;28;20250;-80
2023/02/01 02:25:55;;;;;;;3.42;3.22;;;4.10;1.00;;;;;;5005996;28;20219;-80
2023/02/01 02:28:54;;;;;;;3.33;3.13;;;4.00;1.00;;;;;;4953809;28;20237;-80
2023/02/01 02:31:43;;;;;;;3.42;3.22;;;4.00;1.00;;;;;;5003979;28;20213;-80
2023/02/01 02:34:19;;;;;;;3.22;2.90;;;4.00;1.00;;;;;;5000129;28;20228;-80
2023/02/01 02:37:02;;;;;;;3.25;3.05;;;4.00;1.00;;;;;;5003094;28;20224;-80
2023/02/01 02:39:42;;;;;;;3.30;3.10;;;4.00;1.00;;;;;;5006491;28;20291;-80
2023/02/01 02:47:58;;;;;;;3.05;2.85;;;4.10;1.00;;;;;;4999783;28;20248;-80
2023/02/01 03:04:35;;;;;;;2.80;2.58;;;4.10;1.00;;;;;;5004435;28;20288;-79
2023/02/01 03:07:15;;;;;;;3.00;2.80;;;4.20;1.00;;;;;;5002594;28;20225;-80
2023/02/01 03:09:48;;;;;;;3.08;2.88;;;4.20;1.00;;;;;;5004587;28;20790;-79
2023/02/01 03:15:08;;;;;;;3.03;2.83;;;4.20;1.00;;;;;;5007923;28;20305;-79
2023/02/01 03:17:42;;;;;;;3.15;2.90;;;4.10;1.00;;;;;;5003045;28;20258;-80
2023/02/01 03:20:13;;;;;;;3.00;2.80;;;4.10;1.00;;;;;;5002959;28;20212;-79
2023/02/01 03:22:44;;;;;;;2.83;2.70;;;4.20;1.00;;;;;;5003796;28;20198;-80
2023/02/01 03:25:16;;;;;;;2.65;2.55;;;4.10;1.00;;;;;;5004053;28;20287;-79
2023/02/01 03:27:50;;;;;;;2.85;2.65;;;4.10;1.00;;;;;;5002819;28;20230;-79
2023/02/01 03:30:22;;;;;;;2.45;2.35;;;4.20;1.00;;;;;;5002421;28;20546;-80
2023/02/01 03:33:00;;;;;;;2.42;2.33;;;4.20;1.00;;;;;;5003258;28;20237;-79
2023/02/01 03:35:31;;;;;;;2.80;2.60;;;4.20;1.00;;;;;;5006202;28;20220;-78
2023/02/01 03:38:11;;;;;;;2.40;2.30;;;4.20;1.00;;;;;;5006449;28;20224;-80
2023/02/01 03:40:42;;;;;;;2.58;2.47;;;4.20;1.00;;;;;;5007585;28;20193;-80
2023/02/01 03:43:16;;;;;;;3.22;2.92;;;4.20;1.00;;;;;;5004715;28;20592;-81
2023/02/01 03:45:48;;;;;;;3.17;2.97;;;4.20;1.00;;;;;;5004807;28;20218;-80
2023/02/01 03:48:18;;;;;;;2.40;2.30;;;4.20;1.00;;;;;;5004888;28;20229;-79
2023/02/01 03:50:50;;;;;;;2.95;2.75;;;4.20;1.00;;;;;;5003001;28;20280;-76
2023/02/01 03:53:23;;;;;;;2.85;2.65;;;4.10;1.00;;;;;;5012600;28;20213;-81
2023/02/01 03:55:53;;;;;;;2.33;2.15;;;4.10;1.00;;;;;;5007835;28;20821;-81
2023/02/01 03:58:23;;;;;;;3.08;2.45;;;4.10;1.00;;;;;;5002499;28;20231;-80
2023/02/01 04:00:53;;;;;;;2.70;2.60;;;4.10;1.00;;;;;;5003116;28;20193;-81
2023/02/01 04:03:22;;;;;;;2.97;2.80;;;4.10;1.00;;;;;;5001861;28;20758;-81
2023/02/01 04:05:50;;;;;;;2.30;2.20;;;4.00;1.00;;;;;;5003490;28;20206;-81
2023/02/01 04:08:20;;;;;;;2.92;2.72;;;4.00;1.00;;;;;;5001197;28;20221;-80
2023/02/01 04:10:48;;;;;;;2.67;2.47;;;4.10;1.00;;;;;;5000965;28;20662;-80
2023/02/01 04:13:17;;;;;;;2.83;2.63;;;4.10;1.00;;;;;;4998832;28;20215;-80
2023/02/01 04:15:45;;;;;;;3.30;3.10;;;4.10;1.00;;;;;;5001490;28;20292;-80
2023/02/01 04:18:13;;;;;;;2.92;2.72;;;4.20;1.00;;;;;;5000281;28;20225;-80
2023/02/01 04:20:43;;;;;;;3.80;3.17;;;4.20;1.00;;;;;;4997193;28;20242;-80
2023/02/01 04:23:11;;;;;;;6.72;2.70;;;4.20;1.00;;;;;;4999982;28;20213;-80
2023/02/01 04:25:40;;;;;;;3.08;2.75;;;4.20;1.00;;;;;;4998959;28;20275;-80
2023/02/01 04:28:08;;;;;;;2.55;2.40;;;4.10;1.00;;;;;;5000765;28;20222;-80
2023/02/01 04:30:37;;;;;;;3.08;2.88;;;4.10;1.00;;;;;;5001441;28;20210;-79
2023/02/01 04:33:06;;;;;;;4.65;3.05;;;4.20;1.00;;;;;;5001914;28;20746;-79
2023/02/01 04:35:34;;;;;;;3.05;2.75;;;4.20;1.00;;;;;;4998713;28;20217;-78
2023/02/01 04:38:02;;;;;;;2.60;2.50;;;4.20;1.00;;;;;;5002086;28;20711;-79
2023/02/01 04:40:30;;;;;;;3.15;2.72;;;4.20;1.00;;;;;;5001010;28;20214;-79
2023/02/01 04:43:03;;;;;;;3.40;3.10;;;4.20;1.00;;;;;;4993854;28;20206;-80
2023/02/01 04:45:31;;;;;;;3.25;2.58;;;4.20;1.00;;;;;;4999175;28;20298;-80
2023/02/01 04:47:59;;;;;;;4.45;2.80;;;4.20;1.00;;;;;;5000857;28;20290;-81
2023/02/01 04:50:27;;;;;;;3.40;3.10;;;4.20;1.00;;;;;;4991978;28;20199;-80
2023/02/01 04:52:55;;;;;;;2.75;2.55;;;4.30;1.00;;;;;;4994794;28;20213;-79
2023/02/01 04:55:24;;;;;;;2.90;2.70;;;4.20;1.00;;;;;;5008436;28;20263;-81
2023/02/01 04:57:52;;;;;;;3.05;2.85;;;4.30;1.00;;;;;;5000428;28;20646;-80
2023/02/01 05:00:22;;;;;;;5.15;2.80;;;4.20;1.00;;;;;;4996205;28;20206;-79
2023/02/01 05:02:50;;;;;;;2.55;2.40;;;4.30;1.00;;;;;;4995021;28;20204;-78
2023/02/01 05:05:18;;;;;;;3.85;3.10;;;4.30;1.00;;;;;;4998881;28;20745;-79
2023/02/01 05:07:47;;;;;;;2.85;2.65;;;4.30;1.00;;;;;;4992878;28;20250;-80
2023/02/01 05:10:15;;;;;;;2.60;2.40;;;4.30;1.00;;;;;;5003049;28;20284;-79
2023/02/01 05:15:43;;;;;;;2.75;2.55;;;4.30;1.00;;;;;;4941966;28;20797;-79
2023/02/01 05:18:11;;;;;;;2.40;2.30;;;4.40;1.00;;;;;;4985491;28;20288;-78
2023/02/01 05:20:39;;;;;;;3.35;3.10;;;4.30;1.00;;;;;;5001280;28;20582;-80
2023/02/01 05:23:07;;;;;;;2.95;2.75;;;4.40;1.00;;;;;;5000208;28;20207;-80
2023/02/01 05:25:35;;;;;;;2.60;2.50;;;4.30;1.00;;;;;;5000923;28;20199;-80
2023/02/01 05:28:03;;;;;;;2.80;2.60;;;4.30;1.00;;;;;;5004279;28;20616;-81
2023/02/01 05:30:34;;;;;;;2.78;2.67;;;4.30;1.00;;;;;;5001485;28;20945;-80
2023/02/01 05:33:05;;;;;;;2.53;2.40;;;4.30;1.00;;;;;;5007921;28;20928;-81
2023/02/01 05:35:33;;;;;;;4.95;4.55;;;4.30;1.00;;;;;;4998081;28;20729;-79
2023/02/01 05:38:01;;;;;;;2.83;2.63;;;4.30;1.00;;;;;;4998793;28;20219;-79
2023/02/01 05:40:29;;;;;;;2.47;2.28;;;4.40;1.00;;;;;;4998453;28;20199;-79
2023/02/01 05:42:57;;;;;;;5.18;4.68;;;4.50;99.90;;;;;;5004937;28;20222;-78
2023/02/01 05:45:25;;;;;;;2.83;2.63;;;4.50;99.90;;;;;;4998749;28;20284;-79
2023/02/01 05:47:53;;;;;;;3.22;3.03;;;4.60;99.90;;;;;;5000599;28;20701;-79
2023/02/01 05:50:23;;;;;;;2.93;2.70;;;4.60;99.90;;;;;;5001042;28;20738;-79
2023/02/01 05:52:51;;;;;;;2.40;2.30;;;4.60;99.90;;;;;;4996648;28;20454;-79
2023/02/01 05:55:19;;;;;;;3.67;3.38;;;4.70;99.90;;;;;;5002486;28;20695;-80
2023/02/01 05:57:47;;;;;;;3.55;3.10;;;4.50;99.90;;;;;;4999954;28;20343;-80
2023/02/01 06:00:16;;;;;;;1.90;1.80;;;4.60;99.90;;;;;;5001969;28;20203;-80
2023/02/01 06:02:44;;;;;;;2.25;2.15;;;4.60;99.90;;;;;;4993994;28;20368;-79
2023/02/01 06:05:12;;;;;;;2.72;2.53;;;4.60;99.90;;;;;;4999660;28;20207;-80
2023/02/01 06:07:42;;;;;;;2.95;2.28;;;4.70;99.90;;;;;;5000967;28;20211;-80
2023/02/01 06:10:11;;;;;;;2.60;2.47;;;4.80;99.90;;;;;;4996802;28;20217;-80
2023/02/01 06:12:39;;;;;;;2.40;2.20;;;4.70;99.90;;;;;;5001751;28;20198;-79
2023/02/01 06:15:08;;;;;;;2.50;2.30;;;4.70;99.90;;;;;;5000490;28;20801;-78
2023/02/01 06:17:37;;;;;;;2.50;2.35;;;4.50;99.90;;;;;;4998480;28;20296;-79
2023/02/01 06:20:06;;;;;;;2.47;2.33;;;4.50;1.00;;;;;;4998498;28;20203;-81
2023/02/01 06:22:35;;;;;;;5.72;5.18;;;4.40;1.00;;;;;;4994853;28;20195;-79
2023/02/01 06:25:06;;;;;;;3.22;2.95;;;4.40;1.00;;;;;;4994708;28;20781;-81
2023/02/01 06:27:35;;;;;;;2.60;2.40;;;4.40;1.00;;;;;;4996655;28;20229;-79
2023/02/01 06:30:04;;;;;;;2.88;2.67;;;4.30;1.00;;;;;;4993668;28;20655;-80
2023/02/01 06:32:32;;;;;;;2.10;2.00;;;4.20;1.00;;;;;;4997897;28;20218;-79
2023/02/01 06:35:00;;;;;;;2.70;2.50;;;4.20;1.00;;;;;;4996232;28;20676;-80
2023/02/01 06:37:29;;;;;;;2.80;2.60;;;4.20;1.00;;;;;;4997026;28;20231;-78
2023/02/01 06:39:57;;;;;;;2.70;2.53;;;4.30;1.00;;;;;;4997507;28;20203;-80
2023/02/01 06:42:27;;;;;;;2.53;2.33;;;4.30;1.00;;;;;;4996180;28;20201;-79
2023/02/01 06:44:55;;;;;;;3.47;2.55;;;4.30;1.00;;;;;;4994839;28;20229;-81
2023/02/01 06:47:23;;;;;;;2.70;2.50;;;4.30;1.00;;;;;;4996753;28;20248;-79
2023/02/01 06:49:51;;;;;;;2.85;2.65;;;4.40;1.00;;;;;;4992559;28;20207;-79
2023/02/01 06:52:20;;;;;;;2.67;2.45;;;4.50;99.90;;;;;;4996301;28;20205;-81
2023/02/01 06:54:48;;;;;;;3.00;2.70;;;4.50;1.00;;;;;;4997119;28;20202;-82
2023/02/01 06:57:16;;;;;;;3.45;2.70;;;4.50;99.90;;;;;;5002442;28;20237;-81
2023/02/01 06:59:45;;;;;;;2.40;2.20;;;4.50;99.90;;;;;;5001124;28;20621;-80
2023/02/01 07:02:14;;;;;;;3.08;2.78;;;4.60;99.90;;;;;;5000089;28;20251;-80
2023/02/01 07:04:42;;;;;;;2.80;2.60;;;4.70;99.90;;;;;;5001182;28;20663;-80
2023/02/01 07:07:10;;;;;;;2.60;2.33;;;4.60;99.90;;;;;;4997347;28;20237;-81
2023/02/01 07:09:38;;;;;;;2.53;2.33;;;4.60;99.90;;;;;;4998712;28;20202;-82
2023/02/01 07:12:07;;;;;;;2.40;2.20;;;4.60;99.90;;;;;;5001206;28;20237;-81
2023/02/01 07:14:35;;;;;;;2.63;2.53;;;4.60;99.90;;;;;;4998219;28;20229;-81
2023/02/01 07:17:05;;;;;;;2.38;2.28;;;4.60;99.90;;;;;;4998875;28;20699;-82
2023/02/01 07:19:33;;;;;;;2.30;2.20;;;4.60;99.90;;;;;;5002591;28;20203;-81
2023/02/01 07:22:01;;;;;;;2.63;2.33;;;4.70;99.90;;;;;;4989287;28;20206;-81
2023/02/01 07:24:34;;;;;;;2.08;1.98;;;4.70;99.90;;;;;;5003688;28;20202;-81
2023/02/01 07:27:02;;;;;;;1.80;1.70;;;4.70;93.50;;;;;;5001292;28;20226;-82
2023/02/01 07:29:30;;;;;;;2.47;2.30;;;4.80;1.00;;;;;;4997560;28;20209;-80
2023/02/01 07:32:00;;;;;;;2.97;2.25;;;4.80;99.90;;;;;;4995596;28;20201;-80
2023/02/01 07:34:30;;;;;;;2.58;2.20;;;4.80;99.90;;;;;;5000408;28;20207;-79
2023/02/01 07:36:58;;;;;;;2.20;2.00;;;4.80;1.00;;;;;;4997395;28;20222;-81
2023/02/01 07:39:28;;;;;;;2.92;2.72;;;4.90;99.90;;;;;;4997230;28;20198;-80
2023/02/01 07:41:56;;;;;;;2.15;2.05;;;4.90;1.00;;;;;;4992323;28;20593;-81
2023/02/01 07:44:25;;;;;;;2.70;2.50;;;4.90;1.00;;;;;;4994351;28;20202;-81
2023/02/01 07:46:53;;;;;;;2.63;2.43;;;4.80;99.90;;;;;;5000788;28;20241;-80
2023/02/01 07:49:21;;;;;;;2.90;2.70;;;4.90;99.90;;;;;;4996258;28;20511;-81
2023/02/01 07:51:50;;;;;;;2.33;2.22;;;4.80;1.00;;;;;;4996781;28;20500;-80
2023/02/01 07:54:18;;;;;;;3.33;2.35;;;4.90;1.00;;;;;;4998233;28;20199;-81
2023/02/01 07:56:47;;;;;;;2.30;2.20;;;4.70;1.00;;;;;;4997511;28;21157;-81
2023/02/01 07:59:15;;;;;;;3.07;2.87;;;4.70;1.00;;;;;;4995773;28;20220;-81
2023/02/01 08:01:43;;;;;;;2.72;2.47;;;4.80;99.90;;;;;;5000469;28;20458;-80
2023/02/01 08:04:13;;;;;;;5.83;3.00;;;4.80;99.90;;;;;;5005553;28;20534;-79
2023/02/01 08:06:41;;;;;;;3.03;2.83;;;4.80;99.90;;;;;;5004261;28;20489;-80
2023/02/01 08:09:12;;;;;;;3.03;2.47;;;4.90;1.00;;;;;;5009924;28;20198;-81
2023/02/01 08:11:40;;;;;;;2.97;2.78;;;4.90;99.90;;;;;;5014359;28;20226;-82
2023/02/01 08:14:09;;;;;;;2.85;2.50;;;4.90;99.90;;;;;;5007402;28;20199;-81
2023/02/01 08:16:39;;;;;;;2.85;2.40;;;4.90;99.90;;;;;;5002756;28;20324;-81
2023/02/01 08:19:07;;;;;;;2.72;2.53;;;5.00;99.90;;;;;;5013146;28;20202;-81
2023/02/01 08:21:37;;;;;;;6.00;3.30;;;5.10;99.90;;;;;;5012474;28;20195;-81
2023/02/01 08:24:06;;;;;;;3.17;2.60;;;5.00;99.90;;;;;;5011865;28;20202;-81
2023/02/01 08:26:36;;;;;;;2.85;2.47;;;5.10;99.90;;;;;;5008812;28;20223;-82
2023/02/01 08:29:07;;;;;;;3.65;2.70;;;5.00;99.90;;;;;;5007089;28;20270;-82
2023/02/01 08:31:35;;;;;;;2.97;2.78;;;5.10;99.90;;;;;;5008990;28;20693;-81
2023/02/01 08:34:04;;;;;;;2.63;2.43;;;5.10;99.90;;;;;;5008461;28;20655;-82
2023/02/01 08:36:33;;;;;;;5.13;2.72;;;5.20;99.90;;;;;;4999783;28;20470;-81
2023/02/01 08:39:05;;;;;;;2.20;2.10;;;5.20;99.90;;;;;;4994520;28;20312;-79
2023/02/01 08:41:34;;;;;;;3.90;3.63;;;5.10;99.90;;;;;;4993764;28;20462;-80
2023/02/01 08:44:03;;;;;;;6.90;2.97;;;5.20;99.90;;;;;;4992621;28;20633;-80
2023/02/01 08:46:32;;;;;;;3.25;3.03;;;5.10;99.90;;;;;;4991113;28;20484;-80
2023/02/01 08:49:00;;;;;;;3.75;2.83;;;5.10;99.90;;;;;;4990511;28;20203;-80
2023/02/01 08:51:30;;;;;;;3.73;2.67;;;5.10;1.00;;;;;;4991948;28;20226;-80
2023/02/01 08:53:59;;;;;;;3.35;2.58;;;5.10;1.00;;;;;;4997371;28;20466;-79
2023/02/01 08:56:27;;;;;;;2.63;2.40;;;5.10;99.90;;;;;;4996738;28;21292;-80
2023/02/01 08:58:56;;;;;;;2.25;2.15;;;5.10;99.90;;;;;;5002718;28;20306;-80
2023/02/01 09:01:26;;;;;;;3.33;3.03;;;5.10;99.90;;;;;;5000909;28;20230;-81
2023/02/01 09:03:54;;;;;;;5.97;3.03;;;5.20;1.00;;;;;;5002975;28;20210;-82
2023/02/01 09:06:22;;;;;;;3.90;2.50;;;5.20;1.00;;;;;;4998208;28;20207;-81
2023/02/01 09:08:50;;;;;;;4.82;2.58;;;5.20;1.00;;;;;;5002130;28;20201;-81
2023/02/01 09:11:20;;;;;;;2.43;2.20;;;5.10;1.00;;;;;;5001517;28;20206;-80
2023/02/01 09:13:49;;;;;;;3.87;3.47;;;5.10;1.00;;;;;;4998840;28;20487;-81
2023/02/01 09:16:18;;;;;;;2.60;2.42;;;5.10;1.00;;;;;;5002051;28;20553;-81
2023/02/01 09:18:49;;;;;;;4.30;3.90;;;5.10;1.00;;;;;;5005473;28;20289;-81
2023/02/01 09:21:35;;;;;;;5.13;3.13;;;5.10;1.00;;;;;;5005747;28;20202;-81
2023/02/01 09:24:03;;;;;;;5.83;3.20;;;5.20;1.00;;;;;;5005396;28;20285;-79
2023/02/01 09:26:32;;;;;;;5.50;3.97;;;5.20;99.90;;;;;;5007029;28;20501;-81
2023/02/01 09:29:00;;;;;;;2.33;2.17;;;5.30;99.90;;;;;;5009252;28;20664;-81
2023/02/01 09:31:28;;;;;;;3.85;2.72;;;5.30;99.90;;;;;;5008822;28;20207;-82
2023/02/01 09:33:58;;;;;;;3.85;2.50;;;5.30;1.00;;;;;;5003227;28;20199;-81
2023/02/01 09:36:27;;;;;;;2.80;2.55;;;5.20;1.00;;;;;;5005376;28;20202;-81
2023/02/01 09:38:59;;;;;;;3.67;2.63;;;5.30;1.00;;;;;;5005752;28;20216;-80
2023/02/01 09:41:43;;;;;;;5.63;2.67;;;5.30;1.00;;;;;;5000412;28;20280;-80
2023/02/01 09:44:25;;;;;;;2.63;2.40;;;5.30;99.90;;;;;;4996924;28;20520;-79
2023/02/01 09:47:02;;;;;;;5.95;3.00;;;5.30;59.30;;;;;;5001177;28;20721;-81
2023/02/01 09:49:35;;;;;;;5.10;2.80;;;5.30;14.10;;;;;;5000970;28;20202;-81
2023/02/01 09:52:07;;;;;;;3.67;3.33;;;5.40;1.00;;;;;;4995315;28;20233;-81
2023/02/01 09:54:43;;;;;;;5.38;2.80;;;5.40;1.00;;;;;;4997072;28;20457;-81
2023/02/01 09:57:17;;;;;;;5.88;2.80;;;5.40;99.90;;;;;;4996733;28;20222;-81
2023/02/01 09:59:50;;;;;;;6.97;3.20;;;5.50;99.90;;;;;;4994585;28;20214;-81
2023/02/01 10:02:22;;;;;;;10.13;3.20;;;5.50;99.90;;;;;;4996358;28;20201;-81
2023/02/01 10:04:57;;;;;;;5.03;2.70;;;5.50;1.00;;;;;;4999647;28;20210;-81
2023/02/01 10:07:34;;;;;;;6.63;4.30;;;5.50;99.90;;;;;;5009491;28;20224;-80
2023/02/01 10:10:09;;;;;;;5.32;2.90;;;5.60;99.90;;;;;;5005860;28;20202;-81
2023/02/01 10:13:06;;;;;;;5.35;3.00;;;5.60;99.90;;;;;;5001777;28;20538;-81
2023/02/01 10:16:00;;;;;;;2.97;2.45;;;5.60;99.90;;;;;;4996858;28;20203;-81
2023/02/01 10:18:40;;;;;;;3.28;2.28;;;5.70;1.00;;;;;;4994970;28;20686;-81
2023/02/01 10:21:19;;;;;;;6.10;2.60;;;5.70;1.00;;;;;;4992652;28;20199;-81
2023/02/01 10:24:07;;;;;;;6.67;2.67;;;5.80;1.00;;;;;;4988978;28;20466;-81
2023/02/01 10:26:49;;;;;;;6.68;2.40;;;5.80;99.90;;;;;;4989777;28;20477;-81
2023/02/01 10:29:20;;;;;;;3.87;2.00;;;5.80;99.90;;;;;;4993449;28;20206;-80
2023/02/01 10:31:48;;;;;;;5.73;2.97;;;5.80;99.90;;;;;;4992881;28;20461;-81
2023/02/01 10:34:22;;;;;;;7.53;3.20;;;5.80;99.90;;;;;;4996318;28;20865;-81
2023/02/01 10:36:56;;;;;;;2.47;2.05;;;5.80;99.90;;;;;;4995553;28;20868;-80
2023/02/01 10:39:24;;;;;;;5.20;2.15;;;5.70;99.90;;;;;;4997182;28;20693;-81
2023/02/01 10:41:53;;;;;;;3.90;2.10;;;5.80;99.90;;;;;;4996518;28;20204;-81
2023/02/01 10:44:25;;;;;;;7.25;2.75;;;5.80;99.90;;;;;;4998688;28;20465;-81
2023/02/01 10:46:54;;;;;;;5.93;4.60;;;5.80;99.90;;;;;;4993071;28;20227;-81
2023/02/01 10:49:29;;;;;;;5.70;2.78;;;5.80;99.90;;;;;;4997268;28;20471;-81
2023/02/01 10:52:06;;;;;;;7.20;2.72;;;5.80;99.90;;;;;;4998902;28;20202;-81
2023/02/01 10:54:38;;;;;;;9.83;2.83;;;5.80;99.90;;;;;;4997095;28;20190;-81
2023/02/01 10:57:09;;;;;;;10.37;2.50;;;5.90;98.10;;;;;;5000800;28;22819;-81
2023/02/01 10:59:38;;;;;;;3.15;1.90;;;5.90;99.40;;;;;;5002902;28;20572;-80
2023/02/01 11:02:18;;;;;;;4.50;2.43;;;6.00;68.10;;;;;;5001186;28;20213;-81
2023/02/01 11:04:47;;;;;;;7.20;2.67;;;5.90;29.60;;;;;;5001534;28;20464;-81
2023/02/01 11:07:23;;;;;;;4.35;2.60;;;5.90;26.30;;;;;;5003163;28;20478;-80
2023/02/01 11:09:54;;;;;;;7.43;2.70;;;6.00;1.00;;;;;;4999726;28;20202;-81
2023/02/01 11:12:28;;;;;;;5.83;1.77;;;6.00;1.00;;;;;;5002660;28;20446;-82
2023/02/01 11:15:15;;;;;;;5.90;2.90;;;6.00;1.00;;;;;;5000831;28;20553;-81
2023/02/01 11:17:46;;;;;;;5.50;2.47;;;6.00;1.00;;;;;;5011817;28;20486;-82
2023/02/01 11:20:16;;;;;;;7.53;2.80;;;6.00;1.00;;;;;;5003626;28;20491;-80
2023/02/01 11:22:56;;;;;;;5.20;2.80;;;6.00;1.00;;;;;;5000452;28;20528;-81
2023/02/01 11:25:25;;;;;;;6.88;2.70;;;5.90;1.00;;;;;;4995877;28;20461;-81
2023/02/01 11:27:56;;;;;;;5.40;2.45;;;6.00;1.00;;;;;;4994110;28;20218;-81
2023/02/01 11:30:33;;;;;;;4.67;2.20;;;6.00;1.00;;;;;;4986266;28;21466;-81
2023/02/01 11:33:04;;;;;;;9.33;2.40;;;6.00;1.00;;;;;;4987734;28;21114;-81
2023/02/01 11:35:38;;;;;;;8.13;3.00;;;6.10;1.00;;;;;;4992583;28;20510;-82
2023/02/01 11:38:18;;;;;;;4.32;2.08;;;6.10;1.00;;;;;;4990291;28;20521;-80
2023/02/01 11:40:46;;;;;;;3.17;1.90;;;5.90;1.00;;;;;;4991351;28;20202;-81
2023/02/01 11:43:19;;;;;;;13.80;2.30;;;6.00;1.00;;;;;;4989737;28;20461;-81
2023/02/01 11:45:56;;;;;;;1.90;1.80;;;6.00;1.00;;;;;;4994024;28;22748;-79
2023/02/01 11:48:27;;;;;;;3.97;2.17;;;6.00;1.00;;;;;;4990252;28;20309;-78
2023/02/01 11:51:22;;;;;;;12.13;3.67;;;6.00;1.00;;;;;;4995489;28;20489;-81
2023/02/01 11:54:12;;;;;;;6.65;2.35;;;5.90;1.00;;;;;;4998225;28;20287;-81
2023/02/01 11:56:46;;;;;;;5.20;2.50;;;5.90;1.00;;;;;;4999169;28;20617;-81
2023/02/01 11:59:32;;;;;;;9.17;2.73;;;6.00;1.00;;;;;;5001218;28;20921;-80
2023/02/01 12:02:16;;;;;;;5.53;2.80;;;6.00;1.00;;;;;;4989804;28;20665;-83
2023/02/01 12:05:01;;;;;;;11.90;3.17;;;6.00;1.00;;;;;;4991246;28;20541;-82
2023/02/01 12:07:42;;;;;;;5.55;2.60;;;6.00;1.00;;;;;;4998802;28;20881;-81
2023/02/01 12:10:26;;;;;;;6.10;2.00;;;6.00;1.00;;;;;;5002405;28;20261;-80
2023/02/01 12:13:04;;;;;;;2.67;2.47;;;6.00;1.00;;;;;;4992270;28;20454;-81
2023/02/01 12:15:48;;;;;;;8.75;2.10;;;6.00;1.00;;;;;;5005247;28;20486;-79
2023/02/01 12:18:39;;;;;;;6.03;1.90;;;6.00;1.00;;;;;;4995393;28;20257;-81
2023/02/01 12:21:22;;;;;;;4.47;1.98;;;5.80;1.00;;;;;;4999298;28;20438;-81
2023/02/01 12:24:03;;;;;;;4.63;1.63;;;5.80;1.00;;;;;;4994760;28;20201;-81
2023/02/01 12:26:47;;;;;;;3.70;1.85;;;5.90;1.00;;;;;;4992245;28;20646;-80
2023/02/01 12:29:45;;;;;;;3.17;1.90;;;5.80;1.00;;;;;;4994851;28;20207;-81
2023/02/01 12:32:27;;;;;;;5.60;2.85;;;5.80;1.00;;;;;;4998162;28;20227;-81
2023/02/01 12:35:31;;;;;;;5.60;1.90;;;5.90;1.00;;;;;;4994237;28;20202;-80
2023/02/01 12:38:16;;;;;;;2.93;2.60;;;5.90;1.00;;;;;;4991118;28;20520;-79
2023/02/01 12:40:56;;;;;;;3.60;1.60;;;5.90;1.00;;;;;;4994802;28;20531;-81
2023/02/01 12:43:39;;;;;;;5.32;2.13;;;5.90;1.00;;;;;;5000105;28;20475;-81
2023/02/01 12:46:11;;;;;;;9.87;2.00;;;5.90;1.00;;;;;;4994954;28;20573;-82
2023/02/01 12:48:49;;;;;;;4.77;1.90;;;6.00;1.00;;;;;;5005404;28;20480;-81
2023/02/01 12:51:22;;;;;;;6.57;2.20;;;5.90;1.00;;;;;;4993982;28;20980;-80
2023/02/01 12:53:54;;;;;;;6.10;1.80;;;6.00;1.00;;;;;;4997479;28;20461;-80
2023/02/01 12:56:28;;;;;;;6.93;2.70;;;6.00;1.00;;;;;;5007617;28;20539;-81
2023/02/01 12:59:03;;;;;;;3.67;2.13;;;5.90;1.00;;;;;;5016921;28;20577;-82
2023/02/01 13:01:36;;;;;;;6.20;2.80;;;6.00;1.00;;;;;;5008034;28;20201;-83
2023/02/01 13:04:13;;;;;;;3.47;2.40;;;6.00;1.00;;;;;;4999517;28;20911;-81
2023/02/01 13:06:46;;;;;;;8.88;2.75;;;6.10;1.00;;;;;;5006406;28;21075;-81
2023/02/01 13:09:22;;;;;;;5.90;2.47;;;6.10;1.00;;;;;;5007492;28;20667;-80
2023/02/01 13:11:54;;;;;;;2.57;1.93;;;6.20;1.00;;;;;;5006107;28;20479;-82
2023/02/01 13:14:33;;;;;;;6.90;2.07;;;6.20;1.00;;;;;;5002468;28;20461;-81
2023/02/01 13:17:05;;;;;;;3.47;2.30;;;6.20;1.00;;;;;;4995752;28;20485;-81
2023/02/01 13:19:46;;;;;;;6.63;2.57;;;6.20;1.00;;;;;;5002705;28;20944;-80
2023/02/01 13:22:20;;;;;;;2.80;2.00;;;6.10;1.00;;;;;;5005330;28;20445;-81
2023/02/01 13:24:52;;;;;;;4.73;1.90;;;6.20;1.00;;;;;;5007269;28;20976;-81
2023/02/01 13:27:20;;;;;;;6.40;1.73;;;6.10;1.00;;;;;;4996232;28;20480;-81
2023/02/01 13:29:56;;;;;;;5.90;2.03;;;6.20;1.00;;;;;;5004640;28;20458;-81
2023/02/01 13:32:46;;;;;;;6.70;2.10;;;6.10;1.00;;;;;;5001740;28;20452;-79
2023/02/01 13:36:03;;;;;;;5.20;2.03;;;6.10;1.00;;;;;;5007751;28;20458;-78
2023/02/01 13:39:05;;;;;;;7.00;2.03;;;6.10;1.00;;;;;;5003952;28;20492;-79
2023/02/01 13:41:40;;;;;;;2.27;1.70;;;6.00;1.00;;;;;;4965714;28;20619;-80
2023/02/01 13:44:13;;;;;;;4.87;2.10;;;6.00;1.00;;;;;;4987690;28;22188;-80
2023/02/01 13:46:46;;;;;;;3.67;1.80;;;6.00;1.00;;;;;;4990656;28;20480;-80
2023/02/01 13:49:21;;;;;;;5.40;1.80;;;6.00;1.00;;;;;;4998536;28;20563;-81
2023/02/01 13:51:53;;;;;;;2.40;1.70;;;6.00;1.00;;;;;;4998183;28;20452;-81
2023/02/01 13:54:30;;;;;;;2.80;1.77;;;6.00;1.00;;;;;;5001708;28;20458;-81
2023/02/01 13:57:00;;;;;;;4.83;2.43;;;6.10;1.00;;;;;;4994990;28;21358;-81
2023/02/01 13:59:51;;;;;;;5.40;2.37;;;6.10;1.00;;;;;;5005165;28;20588;-81